sensor_id;sensor_type;location;lat;lon;timestamp;temperature;humidity
47521;DHT22;32291;52.010;4.446;2023-07-09T00:01:02;22.70;99.90
47521;DHT22;32291;52.010;4.446;2023-07-09T00:02:04;22.70;99.90
47521;DHT22;32291;52.010;4.446;2023-07-09T00:03:09;22.70;99.90
47521;DHT22;32291;52.010;4.446;2023-07-09T00:04:13;22.70;99.90
47521;DHT22;32291;52.010;4.446;2023-07-09T00:05:20;22.70;99.90
47521;DHT22;32291;52.010;4.446;2023-07-09T00:06:23;22.70;99.90
47521;DHT22;32291;52.010;4.446;2023-07-09T00:07:32;22.70;99.90
47521;DHT22;32291;52.010;4.446;2023-07-09T00:08:37;22.70;99.90
47521;DHT22;32291;52.010;4.446;2023-07-09T00:09:50;22.70;99.90
47521;DHT22;32291;52.010;4.446;2023-07-09T00:10:58;22.70;99.90
47521;DHT22;32291;52.010;4.446;2023-07-09T00:12:06;22.60;99.90
47521;DHT22;32291;52.010;4.446;2023-07-09T00:13:22;22.70;99.90
47521;DHT22;32291;52.010;4.446;2023-07-09T00:14:31;22.60;99.90
47521;DHT22;32291;52.010;4.446;2023-07-09T00:15:36;22.60;99.90
47521;DHT22;32291;52.010;4.446;2023-07-09T00:16:39;22.70;99.90
47521;DHT22;32291;52.010;4.446;2023-07-09T00:17:47;22.70;99.90
47521;DHT22;32291;52.010;4.446;2023-07-09T00:18:49;22.60;99.90
47521;DHT22;32291;52.010;4.446;2023-07-09T00:19:52;22.60;99.90
47521;DHT22;32291;52.010;4.446;2023-07-09T00:20:59;22.60;99.90
47521;DHT22;32291;52.010;4.446;2023-07-09T00:22:01;22.60;99.90
47521;DHT22;32291;52.010;4.446;2023-07-09T00:23:19;22.60;99.90
47521;DHT22;32291;52.010;4.446;2023-07-09T00:24:22;22.60;99.90
47521;DHT22;32291;52.010;4.446;2023-07-09T00:25:33;22.60;99.90
47521;DHT22;32291;52.010;4.446;2023-07-09T00:26:39;22.60;99.90
47521;DHT22;32291;52.010;4.446;2023-07-09T00:27:42;22.50;99.90
47521;DHT22;32291;52.010;4.446;2023-07-09T00:28:52;22.50;99.90
47521;DHT22;32291;52.010;4.446;2023-07-09T00:29:59;22.50;99.90
47521;DHT22;32291;52.010;4.446;2023-07-09T00:31:02;22.50;99.90
47521;DHT22;32291;52.010;4.446;2023-07-09T00:32:17;22.50;99.90
47521;DHT22;32291;52.010;4.446;2023-07-09T00:33:26;22.50;99.90
47521;DHT22;32291;52.010;4.446;2023-07-09T00:34:33;22.40;99.90
47521;DHT22;32291;52.010;4.446;2023-07-09T00:35:35;22.40;99.90
47521;DHT22;32291;52.010;4.446;2023-07-09T00:36:42;22.40;99.90
47521;DHT22;32291;52.010;4.446;2023-07-09T00:37:47;22.40;99.90
47521;DHT22;32291;52.010;4.446;2023-07-09T00:38:50;22.40;99.90
47521;DHT22;32291;52.010;4.446;2023-07-09T00:39:57;22.30;99.90
47521;DHT22;32291;52.010;4.446;2023-07-09T00:41:02;22.40;99.90
47521;DHT22;32291;52.010;4.446;2023-07-09T00:42:16;22.40;99.90
47521;DHT22;32291;52.010;4.446;2023-07-09T00:43:35;22.30;99.90
47521;DHT22;32291;52.010;4.446;2023-07-09T00:44:44;22.30;99.90
47521;DHT22;32291;52.010;4.446;2023-07-09T00:47:43;22.30;99.90
47521;DHT22;32291;52.010;4.446;2023-07-09T00:49:02;22.30;99.90
47521;DHT22;32291;52.010;4.446;2023-07-09T00:50:18;22.40;99.90
47521;DHT22;32291;52.010;4.446;2023-07-09T00:51:41;22.30;99.90
47521;DHT22;32291;52.010;4.446;2023-07-09T00:52:51;22.30;99.90
47521;DHT22;32291;52.010;4.446;2023-07-09T00:53:59;22.30;99.90
47521;DHT22;32291;52.010;4.446;2023-07-09T00:55:21;22.20;99.90
47521;DHT22;32291;52.010;4.446;2023-07-09T00:56:32;22.20;99.90
47521;DHT22;32291;52.010;4.446;2023-07-09T00:57:40;22.20;99.90
47521;DHT22;32291;52.010;4.446;2023-07-09T00:58:49;22.20;99.90
47521;DHT22;32291;52.010;4.446;2023-07-09T01:00:01;22.20;99.90
47521;DHT22;32291;52.010;4.446;2023-07-09T01:01:17;22.20;99.90
47521;DHT22;32291;52.010;4.446;2023-07-09T01:02:21;22.10;99.90
47521;DHT22;32291;52.010;4.446;2023-07-09T01:03:40;22.10;99.90
47521;DHT22;32291;52.010;4.446;2023-07-09T01:04:54;22.10;99.90
47521;DHT22;32291;52.010;4.446;2023-07-09T01:06:07;22.10;99.90
47521;DHT22;32291;52.010;4.446;2023-07-09T01:07:11;22.10;99.90
47521;DHT22;32291;52.010;4.446;2023-07-09T01:08:19;22.10;99.90
47521;DHT22;32291;52.010;4.446;2023-07-09T01:09:23;22.10;99.90
47521;DHT22;32291;52.010;4.446;2023-07-09T01:10:31;22.10;99.90
47521;DHT22;32291;52.010;4.446;2023-07-09T01:11:38;22.10;99.90
47521;DHT22;32291;52.010;4.446;2023-07-09T01:12:40;22.10;99.90
47521;DHT22;32291;52.010;4.446;2023-07-09T01:13:44;22.10;99.90
47521;DHT22;32291;52.010;4.446;2023-07-09T01:14:48;22.10;99.90
47521;DHT22;32291;52.010;4.446;2023-07-09T01:15:55;22.10;99.90
47521;DHT22;32291;52.010;4.446;2023-07-09T01:17:02;22.10;99.90
47521;DHT22;32291;52.010;4.446;2023-07-09T01:18:07;22.10;99.90
47521;DHT22;32291;52.010;4.446;2023-07-09T01:19:12;22.10;99.90
47521;DHT22;32291;52.010;4.446;2023-07-09T01:20:19;22.10;99.90
47521;DHT22;32291;52.010;4.446;2023-07-09T01:21:22;22.10;99.90
47521;DHT22;32291;52.010;4.446;2023-07-09T01:22:25;22.10;99.90
47521;DHT22;32291;52.010;4.446;2023-07-09T01:23:34;22.10;99.90
47521;DHT22;32291;52.010;4.446;2023-07-09T01:26:13;22.10;99.90
47521;DHT22;32291;52.010;4.446;2023-07-09T01:27:18;22.10;99.90
47521;DHT22;32291;52.010;4.446;2023-07-09T01:28:22;22.10;99.90
47521;DHT22;32291;52.010;4.446;2023-07-09T01:29:24;22.10;99.90
47521;DHT22;32291;52.010;4.446;2023-07-09T01:30:38;22.10;99.90
47521;DHT22;32291;52.010;4.446;2023-07-09T01:31:46;22.10;99.90
47521;DHT22;32291;52.010;4.446;2023-07-09T01:32:50;22.10;99.90
47521;DHT22;32291;52.010;4.446;2023-07-09T01:33:53;22.10;99.90
47521;DHT22;32291;52.010;4.446;2023-07-09T01:35:05;22.10;99.90
47521;DHT22;32291;52.010;4.446;2023-07-09T01:36:09;22.00;99.90
47521;DHT22;32291;52.010;4.446;2023-07-09T01:37:32;22.00;99.90
47521;DHT22;32291;52.010;4.446;2023-07-09T01:38:37;22.00;99.90
47521;DHT22;32291;52.010;4.446;2023-07-09T01:39:39;22.00;99.90
47521;DHT22;32291;52.010;4.446;2023-07-09T01:40:44;22.00;99.90
47521;DHT22;32291;52.010;4.446;2023-07-09T01:41:52;22.00;99.90
47521;DHT22;32291;52.010;4.446;2023-07-09T01:43:01;22.00;99.90
47521;DHT22;32291;52.010;4.446;2023-07-09T01:44:09;22.00;99.90
47521;DHT22;32291;52.010;4.446;2023-07-09T01:45:13;22.00;99.90
47521;DHT22;32291;52.010;4.446;2023-07-09T01:46:17;21.90;99.90
47521;DHT22;32291;52.010;4.446;2023-07-09T01:47:25;21.90;99.90
47521;DHT22;32291;52.010;4.446;2023-07-09T01:48:27;22.00;99.90
47521;DHT22;32291;52.010;4.446;2023-07-09T01:49:34;21.90;99.90
47521;DHT22;32291;52.010;4.446;2023-07-09T01:50:36;21.90;99.90
47521;DHT22;32291;52.010;4.446;2023-07-09T01:51:40;21.90;99.90
47521;DHT22;32291;52.010;4.446;2023-07-09T01:52:44;21.90;99.90
47521;DHT22;32291;52.010;4.446;2023-07-09T01:53:47;21.90;99.90
47521;DHT22;32291;52.010;4.446;2023-07-09T01:54:50;21.90;99.90
47521;DHT22;32291;52.010;4.446;2023-07-09T01:55:52;21.90;99.90
47521;DHT22;32291;52.010;4.446;2023-07-09T01:57:16;21.90;99.90
47521;DHT22;32291;52.010;4.446;2023-07-09T01:58:22;21.90;99.90
47521;DHT22;32291;52.010;4.446;2023-07-09T01:59:26;22.00;99.90
47521;DHT22;32291;52.010;4.446;2023-07-09T02:00:28;22.00;99.90
47521;DHT22;32291;52.010;4.446;2023-07-09T02:01:31;21.90;99.90
47521;DHT22;32291;52.010;4.446;2023-07-09T02:02:35;21.90;99.90
47521;DHT22;32291;52.010;4.446;2023-07-09T02:03:38;21.90;99.90
47521;DHT22;32291;52.010;4.446;2023-07-09T02:04:40;21.90;99.90
47521;DHT22;32291;52.010;4.446;2023-07-09T02:05:44;21.90;99.90
47521;DHT22;32291;52.010;4.446;2023-07-09T02:06:47;21.90;99.90
47521;DHT22;32291;52.010;4.446;2023-07-09T02:07:49;21.90;99.90
47521;DHT22;32291;52.010;4.446;2023-07-09T02:08:56;21.90;99.90
47521;DHT22;32291;52.010;4.446;2023-07-09T02:10:05;21.90;99.90
47521;DHT22;32291;52.010;4.446;2023-07-09T02:11:15;21.90;99.90
47521;DHT22;32291;52.010;4.446;2023-07-09T02:12:18;21.90;99.90
47521;DHT22;32291;52.010;4.446;2023-07-09T02:13:25;21.90;99.90
47521;DHT22;32291;52.010;4.446;2023-07-09T02:14:27;21.90;99.90
47521;DHT22;32291;52.010;4.446;2023-07-09T02:15:30;21.90;99.90
47521;DHT22;32291;52.010;4.446;2023-07-09T02:16:34;21.90;99.90
47521;DHT22;32291;52.010;4.446;2023-07-09T02:17:41;21.90;99.90
47521;DHT22;32291;52.010;4.446;2023-07-09T02:18:49;21.90;99.90
47521;DHT22;32291;52.010;4.446;2023-07-09T02:19:51;21.90;99.90
47521;DHT22;32291;52.010;4.446;2023-07-09T02:20:53;21.80;99.90
47521;DHT22;32291;52.010;4.446;2023-07-09T02:21:56;21.80;99.90
47521;DHT22;32291;52.010;4.446;2023-07-09T02:22:58;21.80;99.90
47521;DHT22;32291;52.010;4.446;2023-07-09T02:24:05;21.80;99.90
47521;DHT22;32291;52.010;4.446;2023-07-09T02:25:15;21.80;99.90
47521;DHT22;32291;52.010;4.446;2023-07-09T02:26:17;21.80;99.90
47521;DHT22;32291;52.010;4.446;2023-07-09T02:27:20;21.80;99.90
47521;DHT22;32291;52.010;4.446;2023-07-09T02:28:29;21.80;99.90
47521;DHT22;32291;52.010;4.446;2023-07-09T02:29:36;21.80;99.90
47521;DHT22;32291;52.010;4.446;2023-07-09T02:30:40;21.80;99.90
47521;DHT22;32291;52.010;4.446;2023-07-09T02:31:43;21.80;99.90
47521;DHT22;32291;52.010;4.446;2023-07-09T02:32:46;21.80;99.90
47521;DHT22;32291;52.010;4.446;2023-07-09T02:33:49;21.80;99.90
47521;DHT22;32291;52.010;4.446;2023-07-09T02:34:53;21.70;99.90
47521;DHT22;32291;52.010;4.446;2023-07-09T02:36:02;21.70;99.90
47521;DHT22;32291;52.010;4.446;2023-07-09T02:37:09;21.70;99.90
47521;DHT22;32291;52.010;4.446;2023-07-09T02:38:11;21.70;99.90
47521;DHT22;32291;52.010;4.446;2023-07-09T02:39:14;21.70;99.90
47521;DHT22;32291;52.010;4.446;2023-07-09T02:40:16;21.70;99.90
47521;DHT22;32291;52.010;4.446;2023-07-09T02:41:18;21.70;99.90
47521;DHT22;32291;52.010;4.446;2023-07-09T02:42:21;21.70;99.90
47521;DHT22;32291;52.010;4.446;2023-07-09T02:43:29;21.60;99.90
47521;DHT22;32291;52.010;4.446;2023-07-09T02:44:31;21.60;99.90
47521;DHT22;32291;52.010;4.446;2023-07-09T02:45:38;21.70;99.90
47521;DHT22;32291;52.010;4.446;2023-07-09T02:46:41;21.60;99.90
47521;DHT22;32291;52.010;4.446;2023-07-09T02:47:56;21.60;99.90
47521;DHT22;32291;52.010;4.446;2023-07-09T02:49:04;21.60;99.90
47521;DHT22;32291;52.010;4.446;2023-07-09T02:50:08;21.60;99.90
47521;DHT22;32291;52.010;4.446;2023-07-09T02:51:17;21.60;99.90
47521;DHT22;32291;52.010;4.446;2023-07-09T02:52:19;21.60;99.90
47521;DHT22;32291;52.010;4.446;2023-07-09T02:53:27;21.50;99.90
47521;DHT22;32291;52.010;4.446;2023-07-09T02:54:34;21.50;99.90
47521;DHT22;32291;52.010;4.446;2023-07-09T02:55:37;21.50;99.90
47521;DHT22;32291;52.010;4.446;2023-07-09T02:56:44;21.50;99.90
47521;DHT22;32291;52.010;4.446;2023-07-09T02:57:51;21.50;99.90
47521;DHT22;32291;52.010;4.446;2023-07-09T02:58:56;21.50;99.90
47521;DHT22;32291;52.010;4.446;2023-07-09T03:00:03;21.50;99.90
47521;DHT22;32291;52.010;4.446;2023-07-09T03:01:07;21.50;99.90
47521;DHT22;32291;52.010;4.446;2023-07-09T03:02:10;21.50;99.90
47521;DHT22;32291;52.010;4.446;2023-07-09T03:03:12;21.50;99.90
47521;DHT22;32291;52.010;4.446;2023-07-09T03:04:19;21.50;99.90
47521;DHT22;32291;52.010;4.446;2023-07-09T03:05:24;21.50;99.90
47521;DHT22;32291;52.010;4.446;2023-07-09T03:06:27;21.50;99.90
47521;DHT22;32291;52.010;4.446;2023-07-09T03:07:29;21.50;99.90
47521;DHT22;32291;52.010;4.446;2023-07-09T03:08:32;21.50;99.90
47521;DHT22;32291;52.010;4.446;2023-07-09T03:09:34;21.40;99.90
47521;DHT22;32291;52.010;4.446;2023-07-09T03:10:36;21.40;99.90
47521;DHT22;32291;52.010;4.446;2023-07-09T03:11:43;21.50;99.90
47521;DHT22;32291;52.010;4.446;2023-07-09T03:12:46;21.40;99.90
47521;DHT22;32291;52.010;4.446;2023-07-09T03:13:51;21.40;99.90
47521;DHT22;32291;52.010;4.446;2023-07-09T03:14:53;21.40;99.90
47521;DHT22;32291;52.010;4.446;2023-07-09T03:16:00;21.40;99.90
47521;DHT22;32291;52.010;4.446;2023-07-09T03:17:02;21.40;99.90
47521;DHT22;32291;52.010;4.446;2023-07-09T03:18:10;21.40;99.90
47521;DHT22;32291;52.010;4.446;2023-07-09T03:19:12;21.40;99.90
47521;DHT22;32291;52.010;4.446;2023-07-09T03:20:15;21.40;99.90
47521;DHT22;32291;52.010;4.446;2023-07-09T03:21:17;21.40;99.90
47521;DHT22;32291;52.010;4.446;2023-07-09T03:22:19;21.40;99.90
47521;DHT22;32291;52.010;4.446;2023-07-09T03:23:27;21.40;99.90
47521;DHT22;32291;52.010;4.446;2023-07-09T03:24:34;21.40;99.90
47521;DHT22;32291;52.010;4.446;2023-07-09T03:25:43;21.40;99.90
47521;DHT22;32291;52.010;4.446;2023-07-09T03:26:51;21.40;99.90
47521;DHT22;32291;52.010;4.446;2023-07-09T03:27:56;21.40;99.90
47521;DHT22;32291;52.010;4.446;2023-07-09T03:28:58;21.40;99.90
47521;DHT22;32291;52.010;4.446;2023-07-09T03:30:00;21.40;99.90
47521;DHT22;32291;52.010;4.446;2023-07-09T03:33:13;21.40;99.90
47521;DHT22;32291;52.010;4.446;2023-07-09T03:34:17;21.30;99.90
47521;DHT22;32291;52.010;4.446;2023-07-09T03:35:22;21.30;99.90
47521;DHT22;32291;52.010;4.446;2023-07-09T03:36:31;21.30;99.90
47521;DHT22;32291;52.010;4.446;2023-07-09T03:37:34;21.30;99.90
47521;DHT22;32291;52.010;4.446;2023-07-09T03:38:36;21.30;99.90
47521;DHT22;32291;52.010;4.446;2023-07-09T03:39:45;21.30;99.90
47521;DHT22;32291;52.010;4.446;2023-07-09T03:40:54;21.30;99.90
47521;DHT22;32291;52.010;4.446;2023-07-09T03:41:59;21.30;99.90
47521;DHT22;32291;52.010;4.446;2023-07-09T03:43:01;21.30;99.90
47521;DHT22;32291;52.010;4.446;2023-07-09T03:44:04;21.30;99.90
47521;DHT22;32291;52.010;4.446;2023-07-09T03:45:06;21.30;99.90
47521;DHT22;32291;52.010;4.446;2023-07-09T03:46:13;21.30;99.90
47521;DHT22;32291;52.010;4.446;2023-07-09T03:47:20;21.30;99.90
47521;DHT22;32291;52.010;4.446;2023-07-09T03:48:22;21.30;99.90
47521;DHT22;32291;52.010;4.446;2023-07-09T03:49:29;21.30;99.90
47521;DHT22;32291;52.010;4.446;2023-07-09T03:50:36;21.20;99.90
47521;DHT22;32291;52.010;4.446;2023-07-09T03:51:38;21.20;99.90
47521;DHT22;32291;52.010;4.446;2023-07-09T03:52:41;21.20;99.90
47521;DHT22;32291;52.010;4.446;2023-07-09T03:53:44;21.20;99.90
47521;DHT22;32291;52.010;4.446;2023-07-09T03:54:46;21.20;99.90
47521;DHT22;32291;52.010;4.446;2023-07-09T03:55:54;21.20;99.90
47521;DHT22;32291;52.010;4.446;2023-07-09T03:57:03;21.20;99.90
47521;DHT22;32291;52.010;4.446;2023-07-09T03:58:10;21.20;99.90
47521;DHT22;32291;52.010;4.446;2023-07-09T03:59:12;21.20;99.90
47521;DHT22;32291;52.010;4.446;2023-07-09T04:00:15;21.20;99.90
47521;DHT22;32291;52.010;4.446;2023-07-09T04:01:17;21.20;99.90
47521;DHT22;32291;52.010;4.446;2023-07-09T04:02:24;21.20;99.90
47521;DHT22;32291;52.010;4.446;2023-07-09T04:03:27;21.30;99.90
47521;DHT22;32291;52.010;4.446;2023-07-09T04:04:29;21.20;99.90
47521;DHT22;32291;52.010;4.446;2023-07-09T04:05:35;21.20;99.90
47521;DHT22;32291;52.010;4.446;2023-07-09T04:06:38;21.30;99.90
47521;DHT22;32291;52.010;4.446;2023-07-09T04:07:41;21.30;99.90
47521;DHT22;32291;52.010;4.446;2023-07-09T04:08:43;21.30;99.90
47521;DHT22;32291;52.010;4.446;2023-07-09T04:09:45;21.30;99.90
47521;DHT22;32291;52.010;4.446;2023-07-09T04:10:48;21.30;99.90
47521;DHT22;32291;52.010;4.446;2023-07-09T04:11:55;21.30;99.90
47521;DHT22;32291;52.010;4.446;2023-07-09T04:13:02;21.30;99.90
47521;DHT22;32291;52.010;4.446;2023-07-09T04:14:06;21.30;99.90
47521;DHT22;32291;52.010;4.446;2023-07-09T04:15:10;21.30;99.90
47521;DHT22;32291;52.010;4.446;2023-07-09T04:16:14;21.30;99.90
47521;DHT22;32291;52.010;4.446;2023-07-09T04:17:16;21.30;99.90
47521;DHT22;32291;52.010;4.446;2023-07-09T04:18:18;21.40;99.90
47521;DHT22;32291;52.010;4.446;2023-07-09T04:19:20;21.40;99.90
47521;DHT22;32291;52.010;4.446;2023-07-09T04:20:29;21.40;99.90
47521;DHT22;32291;52.010;4.446;2023-07-09T04:21:34;21.40;99.90
47521;DHT22;32291;52.010;4.446;2023-07-09T04:22:37;21.40;99.90
47521;DHT22;32291;52.010;4.446;2023-07-09T04:23:40;21.40;99.90
47521;DHT22;32291;52.010;4.446;2023-07-09T04:24:45;21.40;99.90
47521;DHT22;32291;52.010;4.446;2023-07-09T04:25:47;21.40;99.90
47521;DHT22;32291;52.010;4.446;2023-07-09T04:26:54;21.40;99.90
47521;DHT22;32291;52.010;4.446;2023-07-09T04:28:03;21.40;99.90
47521;DHT22;32291;52.010;4.446;2023-07-09T04:29:05;21.40;99.90
47521;DHT22;32291;52.010;4.446;2023-07-09T04:30:11;21.40;99.90
47521;DHT22;32291;52.010;4.446;2023-07-09T04:31:16;21.40;99.90
47521;DHT22;32291;52.010;4.446;2023-07-09T04:32:23;21.50;99.90
47521;DHT22;32291;52.010;4.446;2023-07-09T04:33:25;21.40;99.90
47521;DHT22;32291;52.010;4.446;2023-07-09T04:34:34;21.50;99.90
47521;DHT22;32291;52.010;4.446;2023-07-09T04:35:36;21.50;99.90
47521;DHT22;32291;52.010;4.446;2023-07-09T04:36:43;21.50;99.90
47521;DHT22;32291;52.010;4.446;2023-07-09T04:37:50;21.50;99.90
47521;DHT22;32291;52.010;4.446;2023-07-09T04:38:52;21.50;99.90
47521;DHT22;32291;52.010;4.446;2023-07-09T04:39:59;21.50;99.90
47521;DHT22;32291;52.010;4.446;2023-07-09T04:41:01;21.50;99.90
47521;DHT22;32291;52.010;4.446;2023-07-09T04:42:05;21.50;99.90
47521;DHT22;32291;52.010;4.446;2023-07-09T04:43:08;21.50;99.90
47521;DHT22;32291;52.010;4.446;2023-07-09T04:44:10;21.50;99.90
47521;DHT22;32291;52.010;4.446;2023-07-09T04:45:12;21.50;99.90
47521;DHT22;32291;52.010;4.446;2023-07-09T04:46:20;21.60;99.90
47521;DHT22;32291;52.010;4.446;2023-07-09T04:47:22;21.60;99.90
47521;DHT22;32291;52.010;4.446;2023-07-09T04:48:27;21.50;99.90
47521;DHT22;32291;52.010;4.446;2023-07-09T04:49:35;21.60;99.90
47521;DHT22;32291;52.010;4.446;2023-07-09T04:50:37;21.60;99.90
47521;DHT22;32291;52.010;4.446;2023-07-09T04:51:39;21.60;99.90
47521;DHT22;32291;52.010;4.446;2023-07-09T04:52:41;21.70;99.90
47521;DHT22;32291;52.010;4.446;2023-07-09T04:53:44;21.70;99.90
47521;DHT22;32291;52.010;4.446;2023-07-09T04:54:51;21.70;99.90
47521;DHT22;32291;52.010;4.446;2023-07-09T04:55:53;21.70;99.90
47521;DHT22;32291;52.010;4.446;2023-07-09T04:56:56;21.80;99.90
47521;DHT22;32291;52.010;4.446;2023-07-09T04:58:05;21.80;99.90
47521;DHT22;32291;52.010;4.446;2023-07-09T04:59:07;21.80;99.90
47521;DHT22;32291;52.010;4.446;2023-07-09T05:00:10;21.80;99.90
47521;DHT22;32291;52.010;4.446;2023-07-09T05:01:13;21.90;99.90
47521;DHT22;32291;52.010;4.446;2023-07-09T05:02:20;21.90;99.90
47521;DHT22;32291;52.010;4.446;2023-07-09T05:03:23;21.90;99.90
47521;DHT22;32291;52.010;4.446;2023-07-09T05:04:25;22.00;99.90
47521;DHT22;32291;52.010;4.446;2023-07-09T05:05:27;22.00;99.90
47521;DHT22;32291;52.010;4.446;2023-07-09T05:06:30;22.00;99.90
47521;DHT22;32291;52.010;4.446;2023-07-09T05:07:32;22.10;99.90
47521;DHT22;32291;52.010;4.446;2023-07-09T05:08:38;22.10;99.90
47521;DHT22;32291;52.010;4.446;2023-07-09T05:09:43;22.10;99.90
47521;DHT22;32291;52.010;4.446;2023-07-09T05:10:48;22.10;99.90
47521;DHT22;32291;52.010;4.446;2023-07-09T05:11:52;22.10;99.90
47521;DHT22;32291;52.010;4.446;2023-07-09T05:12:55;22.10;99.90
47521;DHT22;32291;52.010;4.446;2023-07-09T05:13:57;22.20;99.90
47521;DHT22;32291;52.010;4.446;2023-07-09T05:14:59;22.20;99.90
47521;DHT22;32291;52.010;4.446;2023-07-09T05:16:02;22.20;99.90
47521;DHT22;32291;52.010;4.446;2023-07-09T05:17:05;22.30;99.90
47521;DHT22;32291;52.010;4.446;2023-07-09T05:18:14;22.30;99.90
47521;DHT22;32291;52.010;4.446;2023-07-09T05:19:21;22.30;99.90
47521;DHT22;32291;52.010;4.446;2023-07-09T05:20:23;22.40;99.90
47521;DHT22;32291;52.010;4.446;2023-07-09T05:21:26;22.40;99.90
47521;DHT22;32291;52.010;4.446;2023-07-09T05:22:29;22.40;99.90
47521;DHT22;32291;52.010;4.446;2023-07-09T05:23:36;22.50;99.90
47521;DHT22;32291;52.010;4.446;2023-07-09T05:24:38;22.50;99.90
47521;DHT22;32291;52.010;4.446;2023-07-09T05:25:55;22.50;99.90
47521;DHT22;32291;52.010;4.446;2023-07-09T05:27:01;22.50;99.90
47521;DHT22;32291;52.010;4.446;2023-07-09T05:28:04;22.60;99.90
47521;DHT22;32291;52.010;4.446;2023-07-09T05:29:12;22.60;99.90
47521;DHT22;32291;52.010;4.446;2023-07-09T05:30:15;22.60;99.90
47521;DHT22;32291;52.010;4.446;2023-07-09T05:31:17;22.70;99.90
47521;DHT22;32291;52.010;4.446;2023-07-09T05:32:22;22.70;99.90
47521;DHT22;32291;52.010;4.446;2023-07-09T05:33:30;22.70;99.90
47521;DHT22;32291;52.010;4.446;2023-07-09T05:34:33;22.70;99.90
47521;DHT22;32291;52.010;4.446;2023-07-09T05:35:35;22.70;99.90
47521;DHT22;32291;52.010;4.446;2023-07-09T05:36:37;22.70;99.90
47521;DHT22;32291;52.010;4.446;2023-07-09T05:37:40;22.70;99.90
47521;DHT22;32291;52.010;4.446;2023-07-09T05:38:43;22.80;99.90
47521;DHT22;32291;52.010;4.446;2023-07-09T05:39:48;22.80;99.90
47521;DHT22;32291;52.010;4.446;2023-07-09T05:41:02;22.80;99.90
47521;DHT22;32291;52.010;4.446;2023-07-09T05:42:10;22.90;99.90
47521;DHT22;32291;52.010;4.446;2023-07-09T05:43:12;22.90;99.90
47521;DHT22;32291;52.010;4.446;2023-07-09T05:44:14;22.90;99.90
47521;DHT22;32291;52.010;4.446;2023-07-09T05:45:17;22.90;99.90
47521;DHT22;32291;52.010;4.446;2023-07-09T05:46:22;23.00;99.90
47521;DHT22;32291;52.010;4.446;2023-07-09T05:47:33;23.00;99.90
47521;DHT22;32291;52.010;4.446;2023-07-09T05:48:40;23.10;99.90
47521;DHT22;32291;52.010;4.446;2023-07-09T05:49:46;23.10;99.90
47521;DHT22;32291;52.010;4.446;2023-07-09T05:50:52;23.00;99.90
47521;DHT22;32291;52.010;4.446;2023-07-09T05:52:03;23.10;99.90
47521;DHT22;32291;52.010;4.446;2023-07-09T05:53:11;23.10;99.90
47521;DHT22;32291;52.010;4.446;2023-07-09T05:54:15;23.10;99.90
47521;DHT22;32291;52.010;4.446;2023-07-09T05:55:23;23.20;99.90
47521;DHT22;32291;52.010;4.446;2023-07-09T05:56:30;23.20;99.90
47521;DHT22;32291;52.010;4.446;2023-07-09T05:57:35;23.20;99.90
47521;DHT22;32291;52.010;4.446;2023-07-09T05:58:42;23.30;99.90
47521;DHT22;32291;52.010;4.446;2023-07-09T05:59:49;23.30;99.90
47521;DHT22;32291;52.010;4.446;2023-07-09T06:00:52;23.40;99.90
47521;DHT22;32291;52.010;4.446;2023-07-09T06:01:55;23.40;99.90
47521;DHT22;32291;52.010;4.446;2023-07-09T06:03:03;23.40;99.90
47521;DHT22;32291;52.010;4.446;2023-07-09T06:04:13;23.40;99.90
47521;DHT22;32291;52.010;4.446;2023-07-09T06:05:16;23.40;99.90
47521;DHT22;32291;52.010;4.446;2023-07-09T06:06:18;23.40;99.90
47521;DHT22;32291;52.010;4.446;2023-07-09T06:07:25;23.50;99.90
47521;DHT22;32291;52.010;4.446;2023-07-09T06:08:27;23.50;99.90
47521;DHT22;32291;52.010;4.446;2023-07-09T06:09:35;23.50;99.90
47521;DHT22;32291;52.010;4.446;2023-07-09T06:10:54;23.50;99.90
47521;DHT22;32291;52.010;4.446;2023-07-09T06:11:57;23.60;99.90
47521;DHT22;32291;52.010;4.446;2023-07-09T06:13:04;23.60;99.90
47521;DHT22;32291;52.010;4.446;2023-07-09T06:14:06;23.60;99.90
47521;DHT22;32291;52.010;4.446;2023-07-09T06:15:14;23.60;99.90
47521;DHT22;32291;52.010;4.446;2023-07-09T06:16:20;23.60;99.90
47521;DHT22;32291;52.010;4.446;2023-07-09T06:17:23;23.60;99.90
47521;DHT22;32291;52.010;4.446;2023-07-09T06:18:26;23.60;99.90
47521;DHT22;32291;52.010;4.446;2023-07-09T06:19:36;23.60;99.90
47521;DHT22;32291;52.010;4.446;2023-07-09T06:20:39;23.60;99.90
47521;DHT22;32291;52.010;4.446;2023-07-09T06:21:46;23.60;99.90
47521;DHT22;32291;52.010;4.446;2023-07-09T06:22:52;23.60;99.90
47521;DHT22;32291;52.010;4.446;2023-07-09T06:23:59;23.70;99.90
47521;DHT22;32291;52.010;4.446;2023-07-09T06:25:04;23.70;99.90
47521;DHT22;32291;52.010;4.446;2023-07-09T06:26:06;23.70;99.90
47521;DHT22;32291;52.010;4.446;2023-07-09T06:27:09;23.70;99.90
47521;DHT22;32291;52.010;4.446;2023-07-09T06:28:12;23.70;99.90
47521;DHT22;32291;52.010;4.446;2023-07-09T06:29:19;23.70;99.90
47521;DHT22;32291;52.010;4.446;2023-07-09T06:30:22;23.70;99.90
47521;DHT22;32291;52.010;4.446;2023-07-09T06:31:24;23.70;99.90
47521;DHT22;32291;52.010;4.446;2023-07-09T06:32:26;23.80;99.90
47521;DHT22;32291;52.010;4.446;2023-07-09T06:33:29;23.80;99.90
47521;DHT22;32291;52.010;4.446;2023-07-09T06:34:31;23.80;99.90
47521;DHT22;32291;52.010;4.446;2023-07-09T06:35:34;23.80;99.90
47521;DHT22;32291;52.010;4.446;2023-07-09T06:36:40;23.80;99.90
47521;DHT22;32291;52.010;4.446;2023-07-09T06:37:43;23.90;99.90
47521;DHT22;32291;52.010;4.446;2023-07-09T06:38:45;23.90;99.90
47521;DHT22;32291;52.010;4.446;2023-07-09T06:39:52;23.90;99.90
47521;DHT22;32291;52.010;4.446;2023-07-09T06:40:59;23.90;99.90
47521;DHT22;32291;52.010;4.446;2023-07-09T06:42:02;23.90;99.90
47521;DHT22;32291;52.010;4.446;2023-07-09T06:43:05;23.90;99.90
47521;DHT22;32291;52.010;4.446;2023-07-09T06:44:15;23.90;99.90
47521;DHT22;32291;52.010;4.446;2023-07-09T06:45:17;23.90;99.90
47521;DHT22;32291;52.010;4.446;2023-07-09T06:46:19;23.90;99.90
47521;DHT22;32291;52.010;4.446;2023-07-09T06:47:22;24.00;99.90
47521;DHT22;32291;52.010;4.446;2023-07-09T06:48:25;24.00;99.90
47521;DHT22;32291;52.010;4.446;2023-07-09T06:49:34;24.00;99.90
47521;DHT22;32291;52.010;4.446;2023-07-09T06:50:36;24.00;99.90
47521;DHT22;32291;52.010;4.446;2023-07-09T06:52:00;24.00;99.90
47521;DHT22;32291;52.010;4.446;2023-07-09T06:53:02;24.10;99.90
47521;DHT22;32291;52.010;4.446;2023-07-09T06:54:09;24.10;99.90
47521;DHT22;32291;52.010;4.446;2023-07-09T06:55:19;24.10;99.90
47521;DHT22;32291;52.010;4.446;2023-07-09T06:56:25;24.10;99.90
47521;DHT22;32291;52.010;4.446;2023-07-09T06:57:27;24.10;99.90
47521;DHT22;32291;52.010;4.446;2023-07-09T06:58:33;24.10;99.90
47521;DHT22;32291;52.010;4.446;2023-07-09T06:59:38;24.20;99.90